KLM78W ESSA-EHAM
Flight info
| Callsign | KLM78W |
|---|---|
| Flight time | 1h 47m |
| Altitude | 36000 |
| Route | PETEV2K PETEV N872 ELPAX DCT KULUD Z703 EKDIV DCT AMRAK DCT WANZA N872 KUBAT T200 BLUFA BLUFA1A |
| Aircraft | A21N/M-SDE3FGHIRWY/LB1 |
Departure
| Time | 2026-05-05 07:38 |
|---|---|
| Airport | Stockholm-Arlanda Airport (ESSA) |
Arrival
| Time | 2026-05-05 09:25 |
|---|---|
| Airport | Amsterdam Airport Schiphol (EHAM) |
| Time | Latitude | Longitude | Altitude | Speed | Heading |
|---|---|---|---|---|---|
| 2026-05-05 07:15 | 59.64398 | 17.92740 | 112 ft | 0 kts | 46° |
| 2026-05-05 07:27 | 59.64390 | 17.92723 | 112 ft | 4 kts | 46° |
| 2026-05-05 07:27 | 59.64371 | 17.92685 | 112 ft | 4 kts | 46° |
| 2026-05-05 07:27 | 59.64352 | 17.92646 | 110 ft | 4 kts | 46° |
| 2026-05-05 07:27 | 59.64334 | 17.92610 | 109 ft | 2 kts | 46° |
| 2026-05-05 07:28 | 59.64333 | 17.92607 | 109 ft | 0 kts | 46° |
| 2026-05-05 07:30 | 59.64332 | 17.92617 | 109 ft | 1 kts | 89° |
| 2026-05-05 07:30 | 59.64322 | 17.92630 | 110 ft | 4 kts | 159° |
| 2026-05-05 07:31 | 59.64293 | 17.92588 | 110 ft | 6 kts | 227° |
| 2026-05-05 07:31 | 59.64259 | 17.92511 | 113 ft | 10 kts | 229° |
| 2026-05-05 07:31 | 59.64236 | 17.92390 | 113 ft | 8 kts | 275° |
| 2026-05-05 07:31 | 59.64255 | 17.92286 | 113 ft | 9 kts | 296° |
| 2026-05-05 07:32 | 59.64297 | 17.92123 | 114 ft | 13 kts | 298° |
| 2026-05-05 07:32 | 59.64355 | 17.91946 | 113 ft | 17 kts | 326° |
| 2026-05-05 07:32 | 59.64490 | 17.91962 | 111 ft | 23 kts | 12° |
| 2026-05-05 07:32 | 59.64628 | 17.92014 | 109 ft | 24 kts | 10° |
| 2026-05-05 07:33 | 59.64776 | 17.92067 | 107 ft | 23 kts | 11° |
| 2026-05-05 07:33 | 59.64935 | 17.92124 | 107 ft | 23 kts | 9° |
| 2026-05-05 07:33 | 59.65088 | 17.92177 | 107 ft | 22 kts | 10° |
| 2026-05-05 07:33 | 59.65238 | 17.92232 | 107 ft | 22 kts | 11° |
| 2026-05-05 07:34 | 59.65391 | 17.92283 | 105 ft | 22 kts | 12° |
| 2026-05-05 07:34 | 59.65541 | 17.92341 | 105 ft | 22 kts | 11° |
| 2026-05-05 07:34 | 59.65689 | 17.92395 | 105 ft | 21 kts | 10° |
| 2026-05-05 07:34 | 59.65835 | 17.92448 | 106 ft | 22 kts | 10° |
| 2026-05-05 07:35 | 59.65983 | 17.92498 | 109 ft | 22 kts | 11° |
| 2026-05-05 07:35 | 59.66132 | 17.92558 | 112 ft | 22 kts | 10° |
| 2026-05-05 07:35 | 59.66281 | 17.92611 | 117 ft | 21 kts | 10° |
| 2026-05-05 07:35 | 59.66421 | 17.92660 | 122 ft | 20 kts | 4° |
| 2026-05-05 07:36 | 59.66553 | 17.92599 | 122 ft | 18 kts | 342° |
| 2026-05-05 07:36 | 59.66619 | 17.92482 | 121 ft | 11 kts | 283° |
| 2026-05-05 07:36 | 59.66592 | 17.92366 | 121 ft | 6 kts | 218° |
| 2026-05-05 07:36 | 59.66572 | 17.92352 | 122 ft | 1 kts | 192° |
| 2026-05-05 07:37 | 59.66445 | 17.92302 | 120 ft | 52 kts | 191° |
| 2026-05-05 07:37 | 59.65853 | 17.92086 | 114 ft | 118 kts | 190° |
| 2026-05-05 07:37 | 59.64878 | 17.91730 | 115 ft | 163 kts | 198° |
| 2026-05-05 07:37 | 59.63756 | 17.91245 | 633 ft | 165 kts | 195° |
| 2026-05-05 07:38 | 59.62619 | 17.90797 | 1249 ft | 168 kts | 195° |
| 2026-05-05 07:38 | 59.61505 | 17.90161 | 1828 ft | 168 kts | 218° |
| 2026-05-05 07:38 | 59.60762 | 17.88325 | 2095 ft | 181 kts | 244° |
| 2026-05-05 07:38 | 59.60081 | 17.86055 | 2243 ft | 203 kts | 242° |
| 2026-05-05 07:39 | 59.59311 | 17.83561 | 2598 ft | 219 kts | 241° |
| 2026-05-05 07:39 | 59.58515 | 17.80975 | 3418 ft | 223 kts | 243° |
| 2026-05-05 07:39 | 59.57742 | 17.78151 | 3942 ft | 243 kts | 246° |
| 2026-05-05 07:39 | 59.56964 | 17.75143 | 4781 ft | 248 kts | 245° |
| 2026-05-05 07:40 | 59.55929 | 17.72370 | 5704 ft | 255 kts | 231° |
| 2026-05-05 07:40 | 59.54710 | 17.69798 | 6634 ft | 257 kts | 230° |
| 2026-05-05 07:40 | 59.53486 | 17.67279 | 7548 ft | 258 kts | 230° |
| 2026-05-05 07:40 | 59.52240 | 17.64739 | 8518 ft | 257 kts | 230° |
| 2026-05-05 07:41 | 59.50980 | 17.62178 | 9514 ft | 256 kts | 230° |
| 2026-05-05 07:41 | 59.49752 | 17.59675 | 10199 ft | 265 kts | 231° |
| 2026-05-05 07:41 | 59.48420 | 17.56942 | 10450 ft | 288 kts | 230° |
| 2026-05-05 07:41 | 59.47007 | 17.54049 | 11017 ft | 296 kts | 230° |
| 2026-05-05 07:42 | 59.45577 | 17.51143 | 11800 ft | 299 kts | 231° |
| 2026-05-05 07:42 | 59.44119 | 17.48194 | 12649 ft | 299 kts | 231° |
| 2026-05-05 07:42 | 59.42663 | 17.45256 | 13486 ft | 300 kts | 231° |
| 2026-05-05 07:42 | 59.41206 | 17.42319 | 14232 ft | 301 kts | 231° |
| 2026-05-05 07:43 | 59.39742 | 17.39360 | 14930 ft | 303 kts | 231° |
| 2026-05-05 07:43 | 59.38266 | 17.36378 | 15621 ft | 305 kts | 231° |
| 2026-05-05 07:43 | 59.36781 | 17.33377 | 16309 ft | 308 kts | 231° |
| 2026-05-05 07:43 | 59.35284 | 17.30356 | 16972 ft | 310 kts | 231° |
| 2026-05-05 07:44 | 59.33771 | 17.27308 | 17640 ft | 313 kts | 231° |
| 2026-05-05 07:44 | 59.32244 | 17.24242 | 18271 ft | 316 kts | 231° |
| 2026-05-05 07:44 | 59.30705 | 17.21154 | 18832 ft | 319 kts | 231° |
| 2026-05-05 07:44 | 59.29150 | 17.18035 | 19379 ft | 321 kts | 231° |
| 2026-05-05 07:45 | 59.27585 | 17.14899 | 19936 ft | 324 kts | 231° |
| 2026-05-05 07:45 | 59.26006 | 17.11741 | 20479 ft | 326 kts | 230° |
| 2026-05-05 07:45 | 59.24407 | 17.08560 | 21029 ft | 329 kts | 230° |
| 2026-05-05 07:45 | 59.22799 | 17.05363 | 21561 ft | 332 kts | 230° |
| 2026-05-05 07:46 | 59.21175 | 17.02129 | 22085 ft | 334 kts | 230° |
| 2026-05-05 07:46 | 59.19419 | 16.99077 | 22596 ft | 340 kts | 225° |
| 2026-05-05 07:46 | 59.17594 | 16.96106 | 23105 ft | 343 kts | 225° |
| 2026-05-05 07:46 | 59.15753 | 16.93116 | 23560 ft | 346 kts | 225° |
| 2026-05-05 07:47 | 59.13901 | 16.90109 | 23975 ft | 348 kts | 225° |
| 2026-05-05 07:47 | 59.12034 | 16.87082 | 24385 ft | 350 kts | 225° |
| 2026-05-05 07:47 | 59.10154 | 16.84037 | 24804 ft | 352 kts | 225° |
| 2026-05-05 07:47 | 59.08263 | 16.80973 | 25223 ft | 355 kts | 225° |
| 2026-05-05 07:48 | 59.06360 | 16.77892 | 25645 ft | 357 kts | 225° |
| 2026-05-05 07:48 | 59.04450 | 16.74803 | 26042 ft | 359 kts | 225° |
| 2026-05-05 07:48 | 59.02547 | 16.71737 | 26445 ft | 361 kts | 225° |
| 2026-05-05 07:48 | 59.00582 | 16.68584 | 26838 ft | 363 kts | 225° |
| 2026-05-05 07:49 | 58.98653 | 16.65492 | 27218 ft | 365 kts | 225° |
| 2026-05-05 07:49 | 58.96664 | 16.62306 | 27621 ft | 367 kts | 225° |
| 2026-05-05 07:49 | 58.94711 | 16.59185 | 28002 ft | 370 kts | 225° |
| 2026-05-05 07:49 | 58.92721 | 16.56007 | 28374 ft | 372 kts | 225° |
| 2026-05-05 07:50 | 58.90723 | 16.52816 | 28746 ft | 374 kts | 225° |
| 2026-05-05 07:50 | 58.88714 | 16.49608 | 29102 ft | 376 kts | 225° |
| 2026-05-05 07:50 | 58.86688 | 16.46382 | 29453 ft | 378 kts | 225° |
| 2026-05-05 07:50 | 58.84652 | 16.43143 | 29780 ft | 380 kts | 224° |
| 2026-05-05 07:51 | 58.82604 | 16.39888 | 30082 ft | 382 kts | 224° |
| 2026-05-05 07:51 | 58.80544 | 16.36623 | 30385 ft | 384 kts | 224° |
| 2026-05-05 07:51 | 58.78473 | 16.33353 | 30662 ft | 386 kts | 224° |
| 2026-05-05 07:51 | 58.76387 | 16.30064 | 30968 ft | 388 kts | 224° |
| 2026-05-05 07:52 | 58.74297 | 16.26779 | 31376 ft | 387 kts | 224° |
| 2026-05-05 07:52 | 58.72216 | 16.23517 | 31803 ft | 386 kts | 224° |
| 2026-05-05 07:52 | 58.70141 | 16.20268 | 32235 ft | 385 kts | 224° |
| 2026-05-05 07:52 | 58.68068 | 16.17026 | 32636 ft | 384 kts | 224° |
| 2026-05-05 07:53 | 58.65996 | 16.13788 | 33048 ft | 383 kts | 224° |
| 2026-05-05 07:53 | 58.63931 | 16.10564 | 33472 ft | 382 kts | 224° |
| 2026-05-05 07:53 | 58.61876 | 16.07358 | 33871 ft | 381 kts | 224° |
| 2026-05-05 07:53 | 58.59819 | 16.04153 | 34185 ft | 381 kts | 224° |
| 2026-05-05 07:54 | 58.57760 | 16.00944 | 34435 ft | 382 kts | 224° |
| 2026-05-05 07:54 | 58.55690 | 15.97724 | 34674 ft | 384 kts | 224° |
| 2026-05-05 07:54 | 58.53614 | 15.94498 | 34885 ft | 385 kts | 224° |
| 2026-05-05 07:54 | 58.51527 | 15.91262 | 35138 ft | 387 kts | 224° |
| 2026-05-05 07:55 | 58.49431 | 15.88015 | 35364 ft | 388 kts | 224° |
| 2026-05-05 07:55 | 58.47327 | 15.84762 | 35569 ft | 390 kts | 224° |
| 2026-05-05 07:55 | 58.45211 | 15.81505 | 35779 ft | 392 kts | 224° |
| 2026-05-05 07:55 | 58.43088 | 15.78248 | 35860 ft | 391 kts | 223° |
| 2026-05-05 07:56 | 58.38870 | 15.71790 | 35862 ft | 388 kts | 223° |
| 2026-05-05 07:56 | 58.35078 | 15.65991 | 35861 ft | 388 kts | 223° |
| 2026-05-05 07:57 | 58.30870 | 15.59569 | 35862 ft | 388 kts | 223° |
| 2026-05-05 07:57 | 58.26658 | 15.53149 | 35865 ft | 388 kts | 223° |
| 2026-05-05 07:58 | 58.22430 | 15.46738 | 35865 ft | 389 kts | 223° |
| 2026-05-05 07:58 | 58.18197 | 15.40352 | 35863 ft | 389 kts | 223° |
| 2026-05-05 07:59 | 58.13963 | 15.33969 | 35865 ft | 389 kts | 223° |
| 2026-05-05 07:59 | 58.09727 | 15.27596 | 35869 ft | 389 kts | 223° |
| 2026-05-05 08:00 | 58.05650 | 15.21000 | 35876 ft | 388 kts | 226° |
| 2026-05-05 08:00 | 58.01705 | 15.14065 | 35877 ft | 388 kts | 227° |
| 2026-05-05 08:01 | 57.97747 | 15.07145 | 35868 ft | 388 kts | 226° |
| 2026-05-05 08:01 | 57.93750 | 15.00313 | 35875 ft | 388 kts | 226° |
| 2026-05-05 08:02 | 57.89724 | 14.93531 | 35889 ft | 389 kts | 226° |
| 2026-05-05 08:02 | 57.85688 | 14.86747 | 35877 ft | 389 kts | 226° |
| 2026-05-05 08:03 | 57.81651 | 14.79964 | 35889 ft | 390 kts | 226° |
| 2026-05-05 08:03 | 57.77612 | 14.73180 | 35882 ft | 390 kts | 226° |
| 2026-05-05 08:04 | 57.73564 | 14.66405 | 35886 ft | 390 kts | 226° |
| 2026-05-05 08:04 | 57.69501 | 14.59640 | 35892 ft | 391 kts | 225° |
| 2026-05-05 08:05 | 57.65434 | 14.52881 | 35889 ft | 391 kts | 225° |
| 2026-05-05 08:05 | 57.61385 | 14.46176 | 35889 ft | 392 kts | 225° |
| 2026-05-05 08:06 | 57.57300 | 14.39435 | 35891 ft | 392 kts | 225° |
| 2026-05-05 08:06 | 57.53209 | 14.32700 | 35894 ft | 393 kts | 225° |
| 2026-05-05 08:07 | 57.49110 | 14.25974 | 35891 ft | 393 kts | 225° |
| 2026-05-05 08:07 | 57.45003 | 14.19261 | 35888 ft | 393 kts | 225° |
| 2026-05-05 08:08 | 57.40887 | 14.12546 | 35887 ft | 394 kts | 225° |
| 2026-05-05 08:08 | 57.36766 | 14.05854 | 35886 ft | 394 kts | 225° |
| 2026-05-05 08:09 | 57.32640 | 13.99167 | 35885 ft | 394 kts | 225° |
| 2026-05-05 08:09 | 57.28530 | 13.92534 | 35888 ft | 395 kts | 225° |
| 2026-05-05 08:10 | 57.24385 | 13.85877 | 35890 ft | 395 kts | 225° |
| 2026-05-05 08:10 | 57.20237 | 13.79218 | 35897 ft | 395 kts | 225° |
| 2026-05-05 08:11 | 57.16079 | 13.72551 | 35898 ft | 396 kts | 225° |
| 2026-05-05 08:11 | 57.11924 | 13.65900 | 35909 ft | 396 kts | 224° |
| 2026-05-05 08:12 | 57.07741 | 13.59247 | 35920 ft | 397 kts | 224° |
| 2026-05-05 08:12 | 57.03560 | 13.52621 | 35923 ft | 397 kts | 224° |
| 2026-05-05 08:13 | 56.99369 | 13.45995 | 35923 ft | 397 kts | 224° |
| 2026-05-05 08:13 | 56.95172 | 13.39386 | 35927 ft | 398 kts | 224° |
| 2026-05-05 08:14 | 56.90964 | 13.32787 | 35927 ft | 398 kts | 224° |
| 2026-05-05 08:14 | 56.86778 | 13.26238 | 35932 ft | 399 kts | 224° |
| 2026-05-05 08:15 | 56.82565 | 13.19652 | 35935 ft | 399 kts | 224° |
| 2026-05-05 08:15 | 56.78342 | 13.13064 | 35938 ft | 399 kts | 224° |
| 2026-05-05 08:16 | 56.74530 | 13.07148 | 35942 ft | 400 kts | 224° |
| 2026-05-05 08:16 | 56.70287 | 13.00587 | 35949 ft | 400 kts | 224° |
| 2026-05-05 08:17 | 56.66043 | 12.94044 | 35941 ft | 400 kts | 223° |
| 2026-05-05 08:17 | 56.61814 | 12.87536 | 35943 ft | 401 kts | 223° |
| 2026-05-05 08:18 | 56.57552 | 12.81000 | 35938 ft | 401 kts | 223° |
| 2026-05-05 08:18 | 56.53286 | 12.74464 | 35943 ft | 401 kts | 223° |
| 2026-05-05 08:19 | 56.49708 | 12.69007 | 35940 ft | 402 kts | 223° |
| 2026-05-05 08:19 | 56.45446 | 12.62549 | 35945 ft | 402 kts | 223° |
| 2026-05-05 08:20 | 56.41154 | 12.56045 | 35940 ft | 403 kts | 223° |
| 2026-05-05 08:20 | 56.36859 | 12.49536 | 35943 ft | 403 kts | 223° |
| 2026-05-05 08:21 | 56.32546 | 12.43044 | 35943 ft | 404 kts | 223° |
| 2026-05-05 08:21 | 56.28217 | 12.36565 | 35949 ft | 405 kts | 223° |
| 2026-05-05 08:22 | 56.23898 | 12.30066 | 35950 ft | 405 kts | 223° |
| 2026-05-05 08:22 | 56.20044 | 12.24103 | 35956 ft | 405 kts | 224° |
| 2026-05-05 08:23 | 56.15782 | 12.17477 | 35957 ft | 405 kts | 223° |
| 2026-05-05 08:23 | 56.11496 | 12.10876 | 35961 ft | 406 kts | 223° |
| 2026-05-05 08:24 | 56.07201 | 12.04307 | 35961 ft | 407 kts | 223° |
| 2026-05-05 08:24 | 56.02885 | 11.97747 | 35975 ft | 407 kts | 223° |
| 2026-05-05 08:25 | 55.98693 | 11.90963 | 35970 ft | 405 kts | 228° |
| 2026-05-05 08:25 | 55.94782 | 11.83702 | 35964 ft | 406 kts | 228° |
| 2026-05-05 08:26 | 55.90873 | 11.76506 | 35969 ft | 406 kts | 228° |
| 2026-05-05 08:26 | 55.86921 | 11.69289 | 35971 ft | 407 kts | 228° |
| 2026-05-05 08:27 | 55.82970 | 11.62075 | 35968 ft | 407 kts | 228° |
| 2026-05-05 08:27 | 55.79014 | 11.54864 | 35971 ft | 407 kts | 227° |
| 2026-05-05 08:28 | 55.75046 | 11.47655 | 35967 ft | 408 kts | 227° |
| 2026-05-05 08:28 | 55.71068 | 11.40471 | 35970 ft | 408 kts | 227° |
| 2026-05-05 08:29 | 55.67125 | 11.33224 | 35966 ft | 408 kts | 229° |
| 2026-05-05 08:30 | 55.61431 | 11.22107 | 35970 ft | 408 kts | 230° |
| 2026-05-05 08:30 | 55.57964 | 11.15380 | 35970 ft | 408 kts | 229° |
| 2026-05-05 08:31 | 55.54103 | 11.08007 | 35976 ft | 409 kts | 229° |
| 2026-05-05 08:31 | 55.50230 | 11.00654 | 35977 ft | 409 kts | 229° |
| 2026-05-05 08:32 | 55.46360 | 10.93297 | 35975 ft | 409 kts | 229° |
| 2026-05-05 08:32 | 55.42484 | 10.85938 | 35978 ft | 409 kts | 229° |
| 2026-05-05 08:33 | 55.38601 | 10.78619 | 35978 ft | 410 kts | 229° |
| 2026-05-05 08:33 | 55.34701 | 10.71293 | 35976 ft | 410 kts | 229° |
| 2026-05-05 08:34 | 55.30804 | 10.63987 | 35974 ft | 410 kts | 228° |
| 2026-05-05 08:34 | 55.26906 | 10.56699 | 35970 ft | 410 kts | 229° |
| 2026-05-05 08:35 | 55.23025 | 10.49447 | 35973 ft | 410 kts | 228° |
| 2026-05-05 08:35 | 55.19116 | 10.42161 | 35975 ft | 411 kts | 228° |
| 2026-05-05 08:36 | 55.15195 | 10.34896 | 35981 ft | 411 kts | 228° |
| 2026-05-05 08:36 | 55.11261 | 10.27641 | 35982 ft | 411 kts | 228° |
| 2026-05-05 08:37 | 55.07326 | 10.20392 | 35986 ft | 411 kts | 228° |
| 2026-05-05 08:37 | 55.03385 | 10.13143 | 35989 ft | 411 kts | 228° |
| 2026-05-05 08:38 | 54.99440 | 10.05915 | 35992 ft | 411 kts | 228° |
| 2026-05-05 08:38 | 54.95480 | 9.98705 | 35992 ft | 412 kts | 228° |
| 2026-05-05 08:39 | 54.91524 | 9.91503 | 35994 ft | 412 kts | 228° |
| 2026-05-05 08:39 | 54.87568 | 9.84308 | 35991 ft | 412 kts | 228° |
| 2026-05-05 08:40 | 54.83978 | 9.77818 | 35989 ft | 412 kts | 227° |
| 2026-05-05 08:40 | 54.80330 | 9.70182 | 35990 ft | 411 kts | 234° |
| 2026-05-05 08:41 | 54.76900 | 9.62255 | 35979 ft | 411 kts | 234° |
| 2026-05-05 08:41 | 54.73493 | 9.54398 | 35979 ft | 411 kts | 234° |
| 2026-05-05 08:42 | 54.70048 | 9.46490 | 35963 ft | 411 kts | 234° |
| 2026-05-05 08:42 | 54.66605 | 9.38593 | 35961 ft | 411 kts | 234° |
| 2026-05-05 08:43 | 54.63165 | 9.30722 | 35964 ft | 411 kts | 234° |
| 2026-05-05 08:43 | 54.59702 | 9.22851 | 35966 ft | 411 kts | 234° |
| 2026-05-05 08:44 | 54.56235 | 9.14997 | 35972 ft | 412 kts | 234° |
| 2026-05-05 08:44 | 54.52766 | 9.07149 | 35962 ft | 411 kts | 233° |
| 2026-05-05 08:45 | 54.49293 | 8.99313 | 35964 ft | 412 kts | 233° |
| 2026-05-05 08:45 | 54.45813 | 8.91496 | 35960 ft | 412 kts | 233° |
| 2026-05-05 08:46 | 54.42324 | 8.83676 | 35964 ft | 412 kts | 233° |
| 2026-05-05 08:46 | 54.38856 | 8.75945 | 35962 ft | 412 kts | 233° |
| 2026-05-05 08:47 | 54.35356 | 8.68177 | 35967 ft | 412 kts | 233° |
| 2026-05-05 08:47 | 54.31849 | 8.60402 | 35964 ft | 412 kts | 233° |
| 2026-05-05 08:48 | 54.28338 | 8.52624 | 35979 ft | 413 kts | 233° |
| 2026-05-05 08:48 | 54.24821 | 8.44868 | 35976 ft | 412 kts | 233° |
| 2026-05-05 08:49 | 54.21058 | 8.37466 | 35982 ft | 414 kts | 225° |
| 2026-05-05 08:49 | 54.16871 | 8.30698 | 35976 ft | 414 kts | 225° |
| 2026-05-05 08:50 | 54.12698 | 8.23947 | 35975 ft | 414 kts | 225° |
| 2026-05-05 08:50 | 54.08544 | 8.17238 | 35979 ft | 414 kts | 225° |
| 2026-05-05 08:51 | 54.04366 | 8.10498 | 35978 ft | 414 kts | 225° |
| 2026-05-05 08:51 | 54.00177 | 8.03769 | 35983 ft | 414 kts | 225° |
| 2026-05-05 08:52 | 53.95992 | 7.97058 | 35983 ft | 414 kts | 225° |
| 2026-05-05 08:52 | 53.91799 | 7.90349 | 35984 ft | 414 kts | 225° |
| 2026-05-05 08:53 | 53.87605 | 7.83667 | 35987 ft | 414 kts | 225° |
| 2026-05-05 08:53 | 53.83409 | 7.77004 | 35985 ft | 414 kts | 225° |
| 2026-05-05 08:54 | 53.79210 | 7.70337 | 35982 ft | 413 kts | 225° |
| 2026-05-05 08:54 | 53.75009 | 7.63705 | 35979 ft | 413 kts | 224° |
| 2026-05-05 08:55 | 53.70806 | 7.57096 | 35980 ft | 413 kts | 224° |
| 2026-05-05 08:55 | 53.68699 | 7.53783 | 35856 ft | 413 kts | 224° |
| 2026-05-05 08:55 | 53.66599 | 7.50486 | 35591 ft | 412 kts | 224° |
| 2026-05-05 08:55 | 53.64505 | 7.47201 | 35344 ft | 411 kts | 224° |
| 2026-05-05 08:56 | 53.62415 | 7.43927 | 35094 ft | 410 kts | 224° |
| 2026-05-05 08:56 | 53.60326 | 7.40665 | 34851 ft | 409 kts | 224° |
| 2026-05-05 08:56 | 53.58232 | 7.37404 | 34609 ft | 409 kts | 224° |
| 2026-05-05 08:56 | 53.56146 | 7.34159 | 34368 ft | 408 kts | 224° |
| 2026-05-05 08:57 | 53.54069 | 7.30929 | 34132 ft | 407 kts | 224° |
| 2026-05-05 08:57 | 53.52018 | 7.27738 | 33889 ft | 406 kts | 224° |
| 2026-05-05 08:57 | 53.49944 | 7.24512 | 33608 ft | 406 kts | 224° |
| 2026-05-05 08:57 | 53.47870 | 7.21288 | 33330 ft | 407 kts | 224° |
| 2026-05-05 08:58 | 53.45790 | 7.18068 | 33055 ft | 407 kts | 224° |
| 2026-05-05 08:58 | 53.43705 | 7.14846 | 32782 ft | 407 kts | 224° |
| 2026-05-05 08:58 | 53.41625 | 7.11635 | 32512 ft | 406 kts | 224° |
| 2026-05-05 08:58 | 53.39548 | 7.08439 | 32246 ft | 404 kts | 224° |
| 2026-05-05 08:59 | 53.37479 | 7.05262 | 31981 ft | 403 kts | 224° |
| 2026-05-05 08:59 | 53.35420 | 7.02105 | 31716 ft | 401 kts | 224° |
| 2026-05-05 08:59 | 53.33364 | 6.98963 | 31430 ft | 398 kts | 223° |
| 2026-05-05 08:59 | 53.31270 | 6.95955 | 30915 ft | 395 kts | 221° |
| 2026-05-05 09:00 | 53.29132 | 6.93066 | 30392 ft | 393 kts | 220° |
| 2026-05-05 09:00 | 53.26988 | 6.90265 | 29862 ft | 390 kts | 220° |
| 2026-05-05 09:00 | 53.24848 | 6.87499 | 29315 ft | 386 kts | 220° |
| 2026-05-05 09:00 | 53.22738 | 6.84763 | 28811 ft | 382 kts | 220° |
| 2026-05-05 09:01 | 53.20685 | 6.82077 | 28318 ft | 377 kts | 221° |
| 2026-05-05 09:01 | 53.18641 | 6.79383 | 27838 ft | 373 kts | 221° |
| 2026-05-05 09:01 | 53.16624 | 6.76710 | 27358 ft | 368 kts | 221° |
| 2026-05-05 09:01 | 53.14609 | 6.74038 | 26896 ft | 364 kts | 221° |
| 2026-05-05 09:02 | 53.12660 | 6.71453 | 26456 ft | 360 kts | 221° |
| 2026-05-05 09:02 | 53.10713 | 6.68871 | 25997 ft | 356 kts | 221° |
| 2026-05-05 09:02 | 53.08785 | 6.66320 | 25585 ft | 352 kts | 221° |
| 2026-05-05 09:02 | 53.06870 | 6.63791 | 25156 ft | 349 kts | 221° |
| 2026-05-05 09:03 | 53.04976 | 6.61296 | 24742 ft | 345 kts | 221° |
| 2026-05-05 09:03 | 53.03099 | 6.58827 | 24328 ft | 342 kts | 221° |
| 2026-05-05 09:03 | 53.01242 | 6.56381 | 23922 ft | 340 kts | 221° |
| 2026-05-05 09:03 | 52.99393 | 6.53947 | 23505 ft | 338 kts | 221° |
| 2026-05-05 09:04 | 52.97556 | 6.51533 | 23049 ft | 335 kts | 221° |
| 2026-05-05 09:04 | 52.95739 | 6.49151 | 22634 ft | 332 kts | 221° |
| 2026-05-05 09:04 | 52.93937 | 6.46788 | 22224 ft | 330 kts | 221° |
| 2026-05-05 09:04 | 52.92138 | 6.44434 | 21808 ft | 328 kts | 221° |
| 2026-05-05 09:05 | 52.90348 | 6.42099 | 21395 ft | 327 kts | 221° |
| 2026-05-05 09:05 | 52.88562 | 6.39772 | 20976 ft | 326 kts | 221° |
| 2026-05-05 09:05 | 52.86786 | 6.37459 | 20567 ft | 324 kts | 221° |
| 2026-05-05 09:05 | 52.85014 | 6.35153 | 20147 ft | 323 kts | 221° |
| 2026-05-05 09:06 | 52.83412 | 6.32648 | 19726 ft | 319 kts | 231° |
| 2026-05-05 09:06 | 52.82503 | 6.30690 | 19446 ft | 317 kts | 237° |
| 2026-05-05 09:06 | 52.80852 | 6.26720 | 18908 ft | 316 kts | 237° |
| 2026-05-05 09:06 | 52.79600 | 6.23744 | 18506 ft | 315 kts | 237° |
| 2026-05-05 09:07 | 52.78754 | 6.21742 | 18225 ft | 314 kts | 237° |
| 2026-05-05 09:07 | 52.77510 | 6.18794 | 17779 ft | 313 kts | 237° |
| 2026-05-05 09:07 | 52.76267 | 6.15842 | 17385 ft | 312 kts | 237° |
| 2026-05-05 09:07 | 52.75031 | 6.12913 | 16992 ft | 310 kts | 237° |
| 2026-05-05 09:08 | 52.73815 | 6.10037 | 16616 ft | 309 kts | 237° |
| 2026-05-05 09:08 | 52.72585 | 6.07134 | 16219 ft | 308 kts | 237° |
| 2026-05-05 09:08 | 52.71366 | 6.04249 | 15840 ft | 306 kts | 237° |
| 2026-05-05 09:08 | 52.70152 | 6.01375 | 15462 ft | 305 kts | 237° |
| 2026-05-05 09:09 | 52.68936 | 5.98510 | 15065 ft | 304 kts | 236° |
| 2026-05-05 09:09 | 52.67726 | 5.95671 | 14692 ft | 302 kts | 236° |
| 2026-05-05 09:09 | 52.66519 | 5.92837 | 14308 ft | 301 kts | 236° |
| 2026-05-05 09:09 | 52.65314 | 5.90018 | 13928 ft | 301 kts | 236° |
| 2026-05-05 09:10 | 52.64108 | 5.87200 | 13527 ft | 300 kts | 236° |
| 2026-05-05 09:10 | 52.62912 | 5.84398 | 13131 ft | 298 kts | 236° |
| 2026-05-05 09:10 | 52.61723 | 5.81611 | 12746 ft | 297 kts | 236° |
| 2026-05-05 09:10 | 52.60539 | 5.78837 | 12375 ft | 295 kts | 236° |
| 2026-05-05 09:11 | 52.59343 | 5.76039 | 11978 ft | 311 kts | 236° |
| 2026-05-05 09:11 | 52.58070 | 5.73056 | 11546 ft | 322 kts | 236° |
| 2026-05-05 09:11 | 52.56779 | 5.70038 | 11105 ft | 323 kts | 236° |
| 2026-05-05 09:11 | 52.55484 | 5.67026 | 10692 ft | 322 kts | 235° |
| 2026-05-05 09:12 | 52.54195 | 5.64040 | 10273 ft | 320 kts | 235° |
| 2026-05-05 09:12 | 52.52955 | 5.61008 | 9821 ft | 319 kts | 238° |
| 2026-05-05 09:12 | 52.52070 | 5.58741 | 9480 ft | 318 kts | 238° |
| 2026-05-05 09:12 | 52.50885 | 5.55691 | 8987 ft | 316 kts | 238° |
| 2026-05-05 09:13 | 52.49726 | 5.52701 | 8543 ft | 314 kts | 238° |
| 2026-05-05 09:13 | 52.48545 | 5.49654 | 8073 ft | 312 kts | 238° |
| 2026-05-05 09:13 | 52.47401 | 5.46696 | 7624 ft | 310 kts | 238° |
| 2026-05-05 09:13 | 52.46245 | 5.43728 | 7174 ft | 308 kts | 236° |
| 2026-05-05 09:14 | 52.44982 | 5.40914 | 6910 ft | 306 kts | 233° |
| 2026-05-05 09:14 | 52.43695 | 5.38139 | 6665 ft | 305 kts | 233° |
| 2026-05-05 09:14 | 52.42430 | 5.35420 | 6463 ft | 296 kts | 233° |
| 2026-05-05 09:14 | 52.41207 | 5.32790 | 6306 ft | 294 kts | 233° |
| 2026-05-05 09:15 | 52.39966 | 5.30137 | 6177 ft | 293 kts | 231° |
| 2026-05-05 09:15 | 52.38626 | 5.27620 | 6046 ft | 293 kts | 228° |
| 2026-05-05 09:15 | 52.37254 | 5.25146 | 5915 ft | 293 kts | 228° |
| 2026-05-05 09:15 | 52.35882 | 5.22684 | 5789 ft | 293 kts | 228° |
| 2026-05-05 09:16 | 52.34509 | 5.20223 | 5658 ft | 293 kts | 228° |
| 2026-05-05 09:16 | 52.33132 | 5.17760 | 5533 ft | 292 kts | 228° |
| 2026-05-05 09:16 | 52.31760 | 5.15310 | 5404 ft | 292 kts | 228° |
| 2026-05-05 09:16 | 52.30391 | 5.12868 | 5275 ft | 289 kts | 228° |
| 2026-05-05 09:17 | 52.29064 | 5.10507 | 5113 ft | 277 kts | 228° |
| 2026-05-05 09:17 | 52.27775 | 5.08219 | 4936 ft | 271 kts | 228° |
| 2026-05-05 09:17 | 52.26497 | 5.05961 | 4753 ft | 270 kts | 228° |
| 2026-05-05 09:17 | 52.25225 | 5.03715 | 4581 ft | 270 kts | 228° |
| 2026-05-05 09:18 | 52.23953 | 5.01469 | 4396 ft | 269 kts | 227° |
| 2026-05-05 09:18 | 52.22707 | 4.99269 | 4215 ft | 259 kts | 228° |
| 2026-05-05 09:18 | 52.21502 | 4.97144 | 4034 ft | 251 kts | 228° |
| 2026-05-05 09:18 | 52.20334 | 4.95081 | 3858 ft | 249 kts | 228° |
| 2026-05-05 09:19 | 52.19188 | 4.92971 | 3663 ft | 246 kts | 231° |
| 2026-05-05 09:19 | 52.18127 | 4.90786 | 3496 ft | 239 kts | 232° |
| 2026-05-05 09:19 | 52.17132 | 4.88699 | 3317 ft | 234 kts | 232° |
| 2026-05-05 09:19 | 52.16149 | 4.86628 | 3145 ft | 229 kts | 232° |
| 2026-05-05 09:20 | 52.15179 | 4.84574 | 3030 ft | 229 kts | 232° |
| 2026-05-05 09:20 | 52.14412 | 4.82405 | 2929 ft | 216 kts | 256° |
| 2026-05-05 09:20 | 52.14396 | 4.80031 | 2744 ft | 204 kts | 289° |
| 2026-05-05 09:20 | 52.15038 | 4.78121 | 2672 ft | 184 kts | 316° |
| 2026-05-05 09:21 | 52.16024 | 4.76989 | 2549 ft | 168 kts | 341° |
| 2026-05-05 09:21 | 52.17101 | 4.76636 | 2399 ft | 151 kts | 5° |
| 2026-05-05 09:21 | 52.18126 | 4.76725 | 2210 ft | 141 kts | 8° |
| 2026-05-05 09:21 | 52.19087 | 4.76812 | 2018 ft | 135 kts | 7° |
| 2026-05-05 09:22 | 52.20007 | 4.76896 | 1842 ft | 130 kts | 7° |
| 2026-05-05 09:22 | 52.20903 | 4.76979 | 1668 ft | 128 kts | 7° |
| 2026-05-05 09:22 | 52.21791 | 4.77061 | 1480 ft | 127 kts | 7° |
| 2026-05-05 09:22 | 52.22673 | 4.77143 | 1313 ft | 127 kts | 7° |
| 2026-05-05 09:23 | 52.23551 | 4.77224 | 1130 ft | 127 kts | 7° |
| 2026-05-05 09:23 | 52.24438 | 4.77306 | 952 ft | 129 kts | 7° |
| 2026-05-05 09:23 | 52.25335 | 4.77389 | 777 ft | 129 kts | 7° |
| 2026-05-05 09:23 | 52.26210 | 4.77469 | 605 ft | 127 kts | 5° |
| 2026-05-05 09:24 | 52.27085 | 4.77550 | 427 ft | 125 kts | 6° |
| 2026-05-05 09:24 | 52.27960 | 4.77631 | 264 ft | 125 kts | 7° |
| 2026-05-05 09:24 | 52.28830 | 4.77713 | 93 ft | 125 kts | 6° |
| 2026-05-05 09:24 | 52.29684 | 4.77790 | -3 ft | 113 kts | 4° |
| 2026-05-05 09:25 | 52.30235 | 4.77841 | 0 ft | 43 kts | 4° |
| 2026-05-05 09:25 | 52.30430 | 4.77803 | 0 ft | 18 kts | 336° |
| 2026-05-05 09:25 | 52.30535 | 4.77719 | -1 ft | 17 kts | 332° |
| 2026-05-05 09:25 | 52.30627 | 4.77610 | -1 ft | 16 kts | 300° |
| 2026-05-05 09:26 | 52.30637 | 4.77433 | -1 ft | 15 kts | 257° |
| 2026-05-05 09:26 | 52.30588 | 4.77283 | -1 ft | 14 kts | 238° |
| 2026-05-05 09:26 | 52.30523 | 4.77113 | -1 ft | 21 kts | 238° |
| 2026-05-05 09:26 | 52.30456 | 4.76938 | -1 ft | 16 kts | 238° |
| 2026-05-05 09:27 | 52.30399 | 4.76792 | -1 ft | 14 kts | 238° |
| 2026-05-05 09:27 | 52.30364 | 4.76698 | -1 ft | 6 kts | 244° |
| 2026-05-05 09:27 | 52.30378 | 4.76652 | -1 ft | 4 kts | 327° |
| 2026-05-05 09:27 | 52.30403 | 4.76648 | -1 ft | 3 kts | 15° |
| 2026-05-05 09:28 | 52.30420 | 4.76660 | -1 ft | 3 kts | 27° |
| 2026-05-05 09:28 | 52.30432 | 4.76671 | -1 ft | 1 kts | 27° |